Airfield :
LOGIN :

Register | Disclaimer

   EN    FR    IT 

 










Legend :    VFR   Marginal VFR   IFR   Intensive IFR   Very Intensive IFR
Visi :
Ceiling :
>= 8 km
>= 3000ft
5 to 8 km
1000 to 3000 ft
1500m to 5 km
500 to 1000 ft
800 to 1500m
200 to 500 ft
< 800m
< 200 ft
Symbols :   Thunderstorms  Fog  Heavy snow  Heavy precipitations  Wind > 20 kt
SIGMETs :     Misc.  Thunderstorms  Icing  Turbulence  Mountain Waves  Volcanic Ashes







- Airport Elevation : 512 ft
- IATA code : URO
- Download approach charts


LFOP - Rouen Vallée de Seine

CURRENT METAR :
  • 202000Z AUTO 03006KT CAVOK 20/12 Q1023 NOSIG

EXPIRED METARs :
  • 201930Z AUTO 03005KT CAVOK 20/13 Q1023 NOSIG
  • 201900Z AUTO 01007KT CAVOK 21/13 Q1022 NOSIG
  • 201830Z AUTO 01006KT CAVOK 22/13 Q1022 NOSIG
  • 201800Z AUTO 01006KT CAVOK 23/13 Q1022 NOSIG
  • 201730Z AUTO 01006KT CAVOK 24/13 Q1022 NOSIG

TAF TAF LFOP
Valid from the 20 at 18:00 until the 21 at 18:00 UTC


201700Z 2018/2118 05005KT CAVOK
BECMG 2107/2110 11010KT
PROB30
TEMPO 2117/2118 3000 TSRA BKN030CB
ATIS : +33 2 35 80 80 34
Met : +33 2 32 86 52 80
No reported NOTAMs for that airfield.



MET'MAP, your aeronautical weather chart ! - Copyright ORBIFLY December 2007 - Disclaimer

ORBIFLY MET'MAP TEAM :

Programming & Development : Alexandra Zaïnal
Concept & Development : Baudouin d'Aumeries
Co-Development & Prog : Marc-Olivier Méhu
Technical & hardware support : Manuel Goepfert

Contact : metmap@orbifly.com




SOURCES & CREDITS :

   NOAA